CA-0485 weather

CLOSED De Lesseps Field
Toronto, Ontario, Canada

Public forecast

Using degrees Celsius for public forecast. Weather courtesy of forecast.io.

METAR (pilot weather report)

Closest report is Lester B. Pearson International Airport, 6.0 nm (11.1 km) WSW. Retrieved 2018/11/17 18:00 UTC (49 minutes ago):

CYYZ 171800Z 29015G20KT 15SM SCT028 OVC042 02/M04 A3015 RMK CU4SC4 SLP219

TAF (pilot weather forecast)

Closest forecast is Lester B. Pearson International Airport, 6.0 nm (11.1 km) WSW. Retrieved 2018/11/17 18:42 UTC (7 minutes ago):

TAF CYYZ 171738Z 1718/1824 29010G20KT P6SM SCT020 OVC040 TEMPO 1718/1719 6SM -SHRASN OVC020 FM171900 30010G20KT P6SM BKN040 TEMPO 1719/1721 6SM -SHSN BECMG 1719/1721 31012KT FM172300 31012KT P6SM BKN030 FM180200 28006KT P6SM SCT030 FM181000 29005KT P6SM BKN025 OVC180 FM181600 20007KT P6SM SCT025 OVC160 FM182200 20005KT P6SM BKN050 RMK NXT FCST BY 172100Z